createdAt,value
2023-02-11T00:02:13.112Z,100577.40
2023-02-11T00:04:40.927Z,100570.60
2023-02-11T00:07:08.840Z,100563.60
2023-02-11T00:09:37.844Z,100558.40
2023-02-11T00:12:06.039Z,100557.40
2023-02-11T00:14:33.990Z,100551.60
2023-02-11T00:17:02.000Z,100553.80
2023-02-11T00:19:29.921Z,100538.80
2023-02-11T00:21:57.867Z,100546.20
2023-02-11T00:24:25.993Z,100545.40
2023-02-11T00:26:53.938Z,100545.40
2023-02-11T00:29:21.752Z,100544.80
2023-02-11T00:31:49.881Z,100540.20
2023-02-11T00:34:17.830Z,100538.60
2023-02-11T00:36:45.845Z,100533.40
2023-02-11T00:39:15.624Z,100531.00
2023-02-11T00:41:43.675Z,100541.20
2023-02-11T00:44:13.954Z,100540.80
2023-02-11T00:46:41.886Z,100545.20
2023-02-11T00:49:11.876Z,100533.60
2023-02-11T00:51:39.944Z,100531.20
2023-02-11T00:54:08.245Z,100518.00
2023-02-11T00:56:36.499Z,100515.60
2023-02-11T00:59:04.310Z,100508.80
2023-02-11T01:01:32.291Z,100509.60
2023-02-11T01:04:00.500Z,100499.80
2023-02-11T01:06:28.470Z,100495.20
2023-02-11T01:08:56.546Z,100483.40
2023-02-11T01:11:24.399Z,100480.40
2023-02-11T01:13:52.502Z,100478.40
2023-02-11T01:16:21.776Z,100480.60
2023-02-11T01:18:49.821Z,100478.40
2023-02-11T01:21:19.486Z,100478.00
2023-02-11T01:23:47.632Z,100471.40
2023-02-11T01:26:15.459Z,100471.60
2023-02-11T01:28:43.271Z,100461.00
2023-02-11T01:31:11.086Z,100466.60
2023-02-11T01:33:39.112Z,100456.80
2023-02-11T01:36:07.927Z,100454.60
2023-02-11T01:38:36.044Z,100436.20
2023-02-11T01:41:10.207Z,100419.40
2023-02-11T01:43:41.542Z,100399.40
2023-02-11T01:46:32.406Z,100403.60
2023-02-11T01:49:12.975Z,100408.60
2023-02-11T01:51:47.042Z,100392.80
2023-02-11T01:54:39.119Z,100378.80
2023-02-11T01:57:22.990Z,100361.40
2023-02-11T02:00:13.272Z,100360.40
2023-02-11T02:03:06.590Z,100345.80
2023-02-11T02:06:41.560Z,100357.20
2023-02-11T02:09:15.306Z,100365.60
2023-02-11T02:11:43.247Z,100367.00
2023-02-11T02:14:11.248Z,100363.60
2023-02-11T02:16:39.363Z,100368.00
2023-02-11T02:19:10.506Z,100366.20
2023-02-11T02:22:06.256Z,100349.20
2023-02-11T02:25:19.752Z,100347.20
2023-02-11T02:28:06.122Z,100339.80
2023-02-11T02:31:23.090Z,100324.80
2023-02-11T02:34:02.905Z,100318.80
2023-02-11T02:36:49.335Z,100318.80
2023-02-11T02:39:26.917Z,100311.20
2023-02-11T02:41:54.814Z,100308.40
2023-02-11T02:44:22.731Z,100311.20
2023-02-11T02:46:50.895Z,100308.20
2023-02-11T02:49:18.999Z,100296.00
2023-02-11T02:51:56.032Z,100280.80
2023-02-11T02:55:06.565Z,100274.20
2023-02-11T02:57:55.655Z,100273.40
2023-02-11T03:00:29.921Z,100262.60
2023-02-11T03:03:26.465Z,100261.60
2023-02-11T03:06:24.037Z,100260.80
2023-02-11T03:09:12.845Z,100257.60
2023-02-11T03:11:40.980Z,100261.80
2023-02-11T03:14:11.511Z,100264.60
2023-02-11T03:16:39.481Z,100271.00
2023-02-11T03:19:14.227Z,100275.80
2023-02-11T03:21:42.884Z,100283.20
2023-02-11T03:24:30.668Z,100290.00
2023-02-11T03:27:03.796Z,100288.00
2023-02-11T03:29:46.252Z,100291.00
2023-02-11T03:32:29.405Z,100294.20
2023-02-11T03:35:07.631Z,100287.20
2023-02-11T03:37:42.609Z,100297.80
2023-02-11T03:40:22.737Z,100285.20
2023-02-11T03:42:58.580Z,100271.60
2023-02-11T03:45:26.657Z,100225.80
2023-02-11T03:48:13.313Z,100185.60
2023-02-11T03:50:41.136Z,100168.80
2023-02-11T03:53:08.974Z,100158.40
2023-02-11T03:55:39.498Z,100175.00
2023-02-11T03:58:07.615Z,100190.40
2023-02-11T04:00:39.680Z,100194.60
2023-02-11T04:03:08.461Z,100201.40
2023-02-11T04:05:36.836Z,100201.60
2023-02-11T04:08:05.168Z,100204.60
2023-02-11T04:10:33.247Z,100211.60
2023-02-11T04:13:01.226Z,100210.20
2023-02-11T04:15:29.168Z,100213.60
2023-02-11T04:17:56.973Z,100220.20
2023-02-11T04:20:24.906Z,100206.40
2023-02-11T04:22:52.790Z,100189.00
2023-02-11T04:25:20.951Z,100174.00
2023-02-11T04:27:48.712Z,100164.60
2023-02-11T04:30:16.678Z,100155.60
2023-02-11T04:32:44.647Z,100148.60
2023-02-11T04:35:12.507Z,100136.60
2023-02-11T04:37:40.487Z,100131.20
2023-02-11T04:40:09.889Z,100127.40
2023-02-11T04:42:37.840Z,100133.40
2023-02-11T04:45:07.878Z,100132.60
2023-02-11T04:47:36.458Z,100132.80
2023-02-11T04:50:05.006Z,100119.80
2023-02-11T04:52:33.025Z,100132.60
2023-02-11T04:55:01.090Z,100129.80
2023-02-11T04:57:28.806Z,100117.20
2023-02-11T04:59:56.633Z,100114.40
2023-02-11T05:02:24.554Z,100114.60
2023-02-11T05:04:52.503Z,100106.80
2023-02-11T05:07:20.408Z,100105.20
2023-02-11T05:09:48.226Z,100092.60
2023-02-11T05:12:16.157Z,100089.20
2023-02-11T05:14:44.142Z,100089.40
2023-02-11T05:17:12.112Z,100090.20
2023-02-11T05:19:40.246Z,100094.20
2023-02-11T05:22:08.424Z,100091.80
2023-02-11T05:24:36.422Z,100102.00
2023-02-11T05:27:04.563Z,100107.00
2023-02-11T05:29:32.514Z,100107.40
2023-02-11T05:32:00.331Z,100111.00
2023-02-11T05:34:28.361Z,100099.00
2023-02-11T05:36:56.413Z,100103.80
2023-02-11T05:39:24.318Z,100092.00
